Flight Track Log - Related Links

Times and Time Zones

All times are in EST time to prevent confusion due to time zone crossing. See the UCA3598 flight status page for this flight to view local times or setup timezone preferences in your user account.

Time Position Orientation Groundspeed Altitude Reporting Facility
EST Latitude Longitude Course Direction KTS MPH feet Rate Location/Type
Sat 10:19:23 PM 38.9500 -77.5333 303° West 156 180 2,200  Level Potomac TRACON
Sat 10:20:17 PM 38.9667 -77.5667 303° West 191 220 3,500 1,333 Climbing Potomac TRACON
Sat 10:21:11 PM 39.0167 -77.5833 345° North 213 245 4,600 1,211 Climbing Potomac TRACON
Sat 10:22:11 PM 39.0833 -77.5667 11° North 221 254 5,800 1,300 Climbing Potomac TRACON
Sat 10:23:11 PM 39.1500 -77.5500 11° North 220 253 7,200 1,388 Climbing Potomac TRACON
Sat 10:24:12 PM 39.2000 -77.5333 14° North 212 244 8,600 1,339 Climbing Potomac TRACON
Sat 10:25:12 PM 39.2667 -77.5333 360° North 212 244 9,900 1,152 Climbing Potomac TRACON
Sat 10:27:30 PM 39.3839 -77.5061 10° North 217 250 12,400 944 Climbing Washington Center
Sat 10:28:29 PM 39.4467 -77.4942 North 217 250 13,000 950 Climbing Washington Center
Sat 10:29:30 PM 39.5114 -77.4800 10° North 229 264 14,300 1,300 Climbing Washington Center
Sat 10:30:29 PM 39.5761 -77.4681 North 235 270 15,600 1,261 Climbing Washington Center
Sat 10:31:29 PM 39.6408 -77.4564 North 235 270 16,800 1,210 Climbing Washington Center
Sat 10:32:28 PM 39.7033 -77.4553 North 235 270 18,000 936 Climbing Washington Center
Sat 10:33:50 PM 39.7975 -77.4453 North 234 269 19,000 423 Climbing New York Center
Sat 10:34:50 PM 39.8600 -77.4106 23° Northeast 251 289 19,000  Level New York Center
Sat 10:35:50 PM 39.9417 -77.3669 22° Northeast 280 322 19,000  Level New York Center
Sat 10:36:50 PM 40.0125 -77.3275 23° Northeast 292 336 19,000  Level New York Center
Sat 10:37:50 PM 40.0961 -77.2864 21° North 292 336 19,000  Level New York Center
Sat 10:38:50 PM 40.1650 -77.2467 24° Northeast 297 342 19,000  Level New York Center
Sat 10:39:50 PM 40.2511 -77.2003 22° Northeast 297 342 19,000  Level New York Center
Sat 10:40:50 PM 40.3197 -77.1658 21° North 297 342 19,000  Level New York Center
Sat 10:41:50 PM 40.4056 -77.1167 24° Northeast 302 348 19,000  Level New York Center
Sat 10:42:50 PM 40.4764 -77.0794 22° Northeast 302 348 19,000  Level New York Center
Sat 10:43:50 PM 40.5622 -77.0325 23° Northeast 302 348 19,000  Level New York Center
Sat 10:44:50 PM 40.6333 -76.9925 23° Northeast 302 348 19,000  Level New York Center
Sat 10:45:50 PM 40.7211 -76.9458 22° Northeast 302 348 19,000  Level New York Center
Sat 10:46:50 PM 40.7919 -76.9083 22° Northeast 302 348 19,000 -550 Level New York Center
Sat 10:47:50 PM 40.8797 -76.8614 22° Northeast 309 356 17,900 -950 Descending New York Center
Sat 10:48:50 PM 40.9592 -76.8133 25° Northeast 309 356 17,100 -950 Descending New York Center
Sat 10:49:50 PM 41.0428 -76.7686 22° Northeast 309 356 16,000 -1,100 Descending New York Center
Sat 10:50:50 PM 41.1264 -76.7236 22° Northeast 309 356 14,900 -1,100 Descending New York Center
Sat 10:51:50 PM 41.2058 -76.6781 23° Northeast 309 356 13,800 -950 Descending New York Center
Sat 10:52:50 PM 41.2872 -76.6300 24° Northeast 309 356 13,000 -350 Descending New York Center
Sat 10:53:50 PM 41.3600 -76.5894 23° Northeast 299 344 13,100 50 Climbing New York Center
Sat 10:54:50 PM 41.4267 -76.5508 23° Northeast 289 333 13,100  Level New York Center
Sat 10:55:50 PM 41.5078 -76.5081 22° Northeast 279 321 13,100 -300 Level New York Center
Sat 10:56:50 PM 41.5806 -76.4672 23° Northeast 284 327 12,500 -850 Descending New York Center
Sat 10:57:50 PM 41.6575 -76.4236 23° Northeast 290 334 11,400 -1,050 Descending New York Center
Sat 10:58:50 PM 41.7261 -76.3822 24° Northeast 290 334 10,400 -1,100 Descending New York Center
Sat 10:59:50 PM 41.7936 -76.3239 33° Northeast 290 334 9,200 -1,200 Descending New York Center
Sat 11:00:50 PM 41.8694 -76.2606 32° Northeast 284 327 8,000 -1,150 Descending New York Center
Sat 11:01:50 PM 41.9364 -76.2075 31° Northeast 284 327 6,900 -1,100 Descending New York Center
Sat 11:02:50 PM 42.0056 -76.1519 31° Northeast 284 327 5,800 -1,000 Descending New York Center
Sat 11:03:50 PM 42.0717 -76.1125 24° Northeast 284 327 4,900 -750 Descending New York Center
Sat 11:04:50 PM 42.1419 -76.0819 18° North 272 313 4,300 -600 Descending New York Center
Sat 11:05:50 PM 42.2025 -76.0756 North 245 282 3,700 -700 Descending New York Center
Sat 11:06:50 PM 42.2453 -76.0511 23° Northeast 202 232 2,900 -750 Descending New York Center
Sat 11:07:50 PM 42.2408 -76.0086 98° East 115 132 2,200 -400 Descending New York Center
Sat 11:08:50 PM 42.2633 -75.9711 51° Northeast 106 122 2,100 -100 Descending New York Center

Login

Don't have an account? Register now (free) for customized features, flight alerts, and more!